Time;durP1;ratioP1;P1;durP2;ratioP2;P2;SDS_P1;SDS_P2;PMS_P1;PMS_P2;Temp;Humidity;BMP_temperature;BMP_pressure;BME280_temperature;BME280_humidity;BME280_pressure;Samples;Min_cycle;Max_cycle;Signal;HPM_P1;HPM_P2
2022/03/20 00:01:10;;;;;;;;;;;1.60;55.90;;;;;;5070551;27;87110;-47
2022/03/20 00:03:35;;;;;;;;;;;1.60;56.00;;;;;;5066573;27;89136;-47
2022/03/20 00:06:01;;;;;;;;;;;1.60;56.00;;;;;;5067297;27;87140;-47
2022/03/20 00:08:27;;;;;;;;;;;1.60;55.80;;;;;;5067493;27;87709;-47
2022/03/20 00:10:54;;;;;;;;;;;1.50;55.90;;;;;;5067134;27;87615;-47
2022/03/20 00:13:21;;;;;;;;;;;1.50;55.90;;;;;;5067572;27;86812;-47
2022/03/20 00:15:48;;;;;;;;;;;1.50;55.90;;;;;;5067447;27;87058;-47
2022/03/20 00:18:14;;;;;;;;;;;1.50;56.00;;;;;;5066877;27;87591;-47
2022/03/20 00:20:41;;;;;;;;;;;1.50;56.00;;;;;;5067657;27;86325;-48
2022/03/20 00:23:11;;;;;;;;;;;1.50;56.00;;;;;;5070161;27;87016;-49
2022/03/20 00:25:41;;;;;;;;;;;1.50;56.10;;;;;;5067586;27;86811;-48
2022/03/20 00:28:07;;;;;;;;;;;1.40;56.20;;;;;;5066654;27;88181;-48
2022/03/20 00:30:33;;;;;;;;;;;1.50;56.20;;;;;;5067138;27;87395;-48
2022/03/20 00:32:59;;;;;;;;;;;1.50;56.20;;;;;;5067376;27;86802;-47
2022/03/20 00:35:25;;;;;;;;;;;1.40;56.10;;;;;;5067343;27;86882;-48
2022/03/20 00:37:51;;;;;;;;;;;1.40;56.20;;;;;;5066780;27;88550;-47
2022/03/20 00:40:16;;;;;;;;;;;1.40;56.10;;;;;;5066988;27;86968;-47
2022/03/20 00:42:42;;;;;;;;;;;1.40;56.20;;;;;;5069521;27;88109;-48
2022/03/20 00:45:08;;;;;;;;;;;1.40;56.20;;;;;;5067503;27;86116;-48
2022/03/20 00:47:33;;;;;;;;;;;1.40;56.20;;;;;;5067293;27;86847;-49
2022/03/20 00:49:59;;;;;;;;;;;1.30;56.30;;;;;;5066730;27;87459;-48
2022/03/20 00:52:25;;;;;;;;;;;1.30;56.40;;;;;;5066242;27;87829;-49
2022/03/20 00:54:50;;;;;;;;;;;1.30;56.30;;;;;;5066755;27;88711;-49
2022/03/20 00:57:16;;;;;;;;;;;1.30;56.50;;;;;;5066382;27;87619;-48
2022/03/20 00:59:42;;;;;;;;;;;1.30;56.40;;;;;;5067045;27;86859;-48
2022/03/20 01:02:08;;;;;;;;;;;1.30;56.60;;;;;;5066688;27;87933;-47
2022/03/20 01:04:35;;;;;;;;;;;1.30;56.50;;;;;;5069166;27;88547;-48
2022/03/20 01:07:02;;;;;;;;;;;1.30;56.40;;;;;;5066967;27;86859;-47
2022/03/20 01:09:31;;;;;;;;;;;1.30;56.50;;;;;;5066714;27;88006;-48
2022/03/20 01:11:57;;;;;;;;;;;1.20;56.50;;;;;;5066632;27;87273;-47
2022/03/20 01:14:25;;;;;;;;;;;1.30;56.50;;;;;;5066535;27;88029;-48
2022/03/20 01:16:54;;;;;;;;;;;1.20;56.40;;;;;;5065802;27;88366;-48
2022/03/20 01:19:23;;;;;;;;;;;1.20;56.40;;;;;;5066478;27;87006;-47
2022/03/20 01:21:49;;;;;;;;;;;1.20;57.00;;;;;;5066784;27;86919;-49
2022/03/20 01:24:15;;;;;;;;;;;1.20;56.50;;;;;;5066059;27;87658;-48
2022/03/20 01:26:42;;;;;;;;;;;1.20;56.50;;;;;;5069739;27;87103;-47
2022/03/20 01:29:07;;;;;;;;;;;1.20;56.40;;;;;;5066222;27;87375;-48
2022/03/20 01:31:35;;;;;;;;;;;1.20;56.60;;;;;;5066212;27;87182;-47
2022/03/20 01:34:00;;;;;;;;;;;1.20;56.40;;;;;;5067057;27;86706;-48
2022/03/20 01:36:26;;;;;;;;;;;1.20;56.60;;;;;;5066151;27;87539;-47
2022/03/20 01:38:52;;;;;;;;;;;1.20;56.60;;;;;;5066432;27;86948;-47
2022/03/20 01:41:18;;;;;;;;;;;1.10;56.50;;;;;;5065861;27;87767;-47
2022/03/20 01:43:54;;;;;;;;;;;1.10;56.60;;;;;;5065806;27;88722;-47
2022/03/20 01:46:20;;;;;;;;;;;1.10;56.60;;;;;;5065700;27;86947;-47
2022/03/20 01:48:46;;;;;;;;;;;1.10;56.60;;;;;;5068746;27;87819;-48
2022/03/20 01:51:12;;;;;;;;;;;1.10;56.70;;;;;;5066006;27;87021;-47
2022/03/20 01:53:38;;;;;;;;;;;1.10;56.60;;;;;;5066396;27;87033;-48
2022/03/20 01:56:04;;;;;;;;;;;1.10;56.60;;;;;;5065644;27;88656;-47
2022/03/20 01:58:32;;;;;;;;;;;1.10;56.70;;;;;;5066502;27;86140;-47
2022/03/20 02:00:58;;;;;;;;;;;1.00;56.70;;;;;;5066040;27;86837;-47
2022/03/20 02:03:24;;;;;;;;;;;1.00;56.80;;;;;;5065729;27;87357;-48
2022/03/20 02:05:50;;;;;;;;;;;1.00;56.70;;;;;;5065650;27;87858;-47
2022/03/20 02:08:16;;;;;;;;;;;1.00;56.80;;;;;;5066028;27;87786;-47
2022/03/20 02:10:43;;;;;;;;;;;1.00;56.70;;;;;;5068339;27;88538;-46
2022/03/20 02:13:09;;;;;;;;;;;1.00;56.90;;;;;;5067613;27;87901;-48
2022/03/20 02:15:36;;;;;;;;;;;0.90;56.70;;;;;;5068921;27;88602;-47
2022/03/20 02:18:03;;;;;;;;;;;0.90;56.70;;;;;;5069201;27;87013;-48
2022/03/20 02:20:29;;;;;;;;;;;0.90;56.70;;;;;;5069149;27;88188;-47
2022/03/20 02:22:55;;;;;;;;;;;0.90;56.80;;;;;;5069239;27;87687;-47
2022/03/20 02:25:21;;;;;;;;;;;0.90;56.80;;;;;;5069178;27;86859;-48
2022/03/20 02:27:47;;;;;;;;;;;0.90;56.80;;;;;;5069113;27;87822;-47
2022/03/20 02:30:15;;;;;;;;;;;0.90;56.90;;;;;;5068055;27;88804;-47
2022/03/20 02:32:51;;;;;;;;;;;0.80;56.80;;;;;;5071877;27;87208;-48
2022/03/20 02:35:18;;;;;;;;;;;0.80;56.80;;;;;;5068617;27;88449;-49
2022/03/20 02:37:47;;;;;;;;;;;0.80;56.80;;;;;;5068882;27;86787;-48
2022/03/20 02:40:14;;;;;;;;;;;0.80;56.90;;;;;;5068876;27;87888;-48
2022/03/20 02:42:41;;;;;;;;;;;0.80;56.90;;;;;;5068860;27;87865;-48
2022/03/20 02:45:11;;;;;;;;;;;0.80;56.80;;;;;;5068491;27;86853;-48
2022/03/20 02:47:37;;;;;;;;;;;0.80;56.80;;;;;;5069134;27;88551;-47
2022/03/20 02:50:08;;;;;;;;;;;0.70;57.00;;;;;;5068454;27;88671;-47
2022/03/20 02:52:39;;;;;;;;;;;0.80;56.90;;;;;;5071683;27;86841;-48
2022/03/20 02:55:05;;;;;;;;;;;0.80;57.60;;;;;;5067641;27;89476;-49
2022/03/20 02:57:31;;;;;;;;;;;0.70;57.00;;;;;;5068643;27;87083;-47
2022/03/20 03:00:00;;;;;;;;;;;0.70;57.00;;;;;;5068525;27;87780;-47
2022/03/20 03:02:30;;;;;;;;;;;0.70;57.00;;;;;;5068220;27;87540;-49
2022/03/20 03:04:59;;;;;;;;;;;0.70;56.90;;;;;;5068533;27;87052;-48
2022/03/20 03:07:28;;;;;;;;;;;0.70;57.00;;;;;;5068572;27;87829;-48
2022/03/20 03:12:38;;;;;;;;;;;0.70;57.00;;;;;;5069130;27;86152;-48
2022/03/20 03:15:20;;;;;;;;;;;0.60;57.00;;;;;;5071194;27;86866;-48
2022/03/20 03:17:46;;;;;;;;;;;0.60;57.10;;;;;;5068622;27;86806;-48
2022/03/20 03:20:12;;;;;;;;;;;0.60;57.00;;;;;;5067548;27;88188;-48
2022/03/20 03:22:38;;;;;;;;;;;0.60;57.10;;;;;;5067855;27;87540;-48
2022/03/20 03:25:04;;;;;;;;;;;0.50;57.00;;;;;;5066966;27;86858;-48
2022/03/20 03:27:30;;;;;;;;;;;0.50;57.30;;;;;;5068145;27;87597;-48
2022/03/20 03:29:57;;;;;;;;;;;0.50;57.10;;;;;;5067774;27;87472;-47
2022/03/20 03:32:23;;;;;;;;;;;0.50;57.10;;;;;;5068048;27;86922;-46
2022/03/20 03:37:32;;;;;;;;;;;0.50;57.20;;;;;;5071326;27;86349;-47
2022/03/20 03:40:03;;;;;;;;;;;0.50;57.20;;;;;;5067913;27;87325;-47
2022/03/20 03:42:30;;;;;;;;;;;0.50;57.20;;;;;;5067401;27;87972;-47
2022/03/20 03:44:56;;;;;;;;;;;0.50;57.20;;;;;;5066793;27;87884;-47
2022/03/20 03:47:21;;;;;;;;;;;0.50;57.80;;;;;;5068194;27;87726;-46
2022/03/20 03:49:48;;;;;;;;;;;0.50;57.10;;;;;;5067291;27;88529;-47
2022/03/20 03:52:14;;;;;;;;;;;0.50;57.00;;;;;;5067730;27;86901;-47
2022/03/20 03:54:40;;;;;;;;;;;0.40;57.20;;;;;;5067716;27;88016;-47
2022/03/20 03:57:06;;;;;;;;;;;0.40;57.30;;;;;;5067460;27;87521;-48
2022/03/20 03:59:33;;;;;;;;;;;0.40;57.30;;;;;;5069864;27;86896;-48
2022/03/20 04:02:00;;;;;;;;;;;0.30;57.40;;;;;;5067978;27;86245;-51
2022/03/20 04:04:26;;;;;;;;;;;0.40;57.30;;;;;;5067577;27;87071;-47
2022/03/20 04:06:52;;;;;;;;;;;0.40;57.30;;;;;;5067475;27;87081;-48
2022/03/20 04:09:17;;;;;;;;;;;0.30;57.20;;;;;;5066818;27;88238;-50
2022/03/20 04:11:43;;;;;;;;;;;0.30;57.50;;;;;;5066697;27;87066;-47
2022/03/20 04:14:08;;;;;;;;;;;0.30;57.40;;;;;;5067649;27;87219;-46
2022/03/20 04:16:34;;;;;;;;;;;0.30;57.30;;;;;;5066975;27;87687;-48
2022/03/20 04:19:00;;;;;;;;;;;0.30;57.30;;;;;;5067319;27;86868;-48
2022/03/20 04:21:25;;;;;;;;;;;0.20;57.40;;;;;;5069792;27;88053;-48
2022/03/20 04:23:51;;;;;;;;;;;0.20;57.50;;;;;;5067250;27;87112;-47
2022/03/20 04:26:17;;;;;;;;;;;0.20;57.40;;;;;;5067844;27;87873;-47
2022/03/20 04:28:44;;;;;;;;;;;0.20;57.50;;;;;;5066762;27;90339;-47
2022/03/20 04:31:15;;;;;;;;;;;0.20;57.60;;;;;;5067062;27;86886;-50
2022/03/20 04:33:48;;;;;;;;;;;0.20;57.40;;;;;;5066565;27;88115;-47
2022/03/20 04:36:14;;;;;;;;;;;0.20;57.40;;;;;;5066218;27;88830;-50
2022/03/20 04:38:43;;;;;;;;;;;0.20;57.30;;;;;;5067395;27;86856;-47
2022/03/20 04:41:09;;;;;;;;;;;0.10;57.40;;;;;;5069658;27;87896;-48
2022/03/20 04:43:35;;;;;;;;;;;0.10;57.40;;;;;;5067234;27;86772;-47
2022/03/20 04:46:01;;;;;;;;;;;0.00;57.60;;;;;;5066568;27;87812;-47
2022/03/20 04:59:24;;;;;;;;;;;0.10;57.50;;;;;;5062970;27;87832;-46
2022/03/20 05:01:50;;;;;;;;;;;0.00;57.50;;;;;;5066710;27;89049;-47
2022/03/20 05:04:15;;;;;;;;;;;0.00;57.70;;;;;;5069244;27;88515;-49
2022/03/20 05:06:43;;;;;;;;;;;0.00;57.60;;;;;;5066885;27;87166;-48
2022/03/20 05:14:37;;;;;;;;;;;0.00;57.70;;;;;;5066888;27;86966;-47
2022/03/20 05:17:06;;;;;;;;;;;-0.10;57.60;;;;;;5066684;27;87891;-46
2022/03/20 05:19:35;;;;;;;;;;;-0.10;57.80;;;;;;5066684;27;86735;-47
2022/03/20 05:22:02;;;;;;;;;;;-0.10;57.80;;;;;;5066429;27;87962;-47
2022/03/20 05:24:28;;;;;;;;;;;-0.10;57.80;;;;;;5065414;27;88576;-46
2022/03/20 05:26:54;;;;;;;;;;;-0.10;57.70;;;;;;5069269;27;87064;-47
2022/03/20 05:29:20;;;;;;;;;;;-0.10;57.60;;;;;;5066011;27;88481;-48
2022/03/20 05:31:46;;;;;;;;;;;-0.10;57.60;;;;;;5066689;27;86867;-47
2022/03/20 05:34:12;;;;;;;;;;;-0.10;57.50;;;;;;5066353;27;88177;-47
2022/03/20 05:36:38;;;;;;;;;;;0.00;57.50;;;;;;5066160;27;87338;-48
2022/03/20 05:39:04;;;;;;;;;;;-0.10;57.60;;;;;;5066153;27;86962;-47
2022/03/20 05:41:49;;;;;;;;;;;-0.10;57.70;;;;;;5066831;27;87985;-50
2022/03/20 05:44:22;;;;;;;;;;;-0.10;57.80;;;;;;5065802;27;87521;-47
2022/03/20 05:46:51;;;;;;;;;;;-0.10;57.70;;;;;;5065774;27;86880;-50
2022/03/20 05:49:17;;;;;;;;;;;-0.10;57.50;;;;;;5071633;27;87966;-49
2022/03/20 05:51:43;;;;;;;;;;;-0.10;57.50;;;;;;5070034;27;86941;-48
2022/03/20 05:54:09;;;;;;;;;;;-0.20;57.90;;;;;;5069623;27;87946;-47
2022/03/20 05:59:19;;;;;;;;;;;-0.10;57.70;;;;;;5069576;27;86872;-48
2022/03/20 06:01:45;;;;;;;;;;;-0.10;57.80;;;;;;5068849;27;87053;-48
2022/03/20 06:04:11;;;;;;;;;;;-0.10;57.60;;;;;;5068392;27;87454;-48
2022/03/20 06:06:37;;;;;;;;;;;-0.10;57.50;;;;;;5069284;27;86057;-47
2022/03/20 06:09:03;;;;;;;;;;;-0.10;57.40;;;;;;5068746;27;86781;-47
2022/03/20 06:11:28;;;;;;;;;;;-0.10;57.60;;;;;;5071324;27;88897;-47
2022/03/20 06:13:54;;;;;;;;;;;-0.20;57.80;;;;;;5068017;27;87784;-47
2022/03/20 06:16:21;;;;;;;;;;;-0.20;57.50;;;;;;5068626;27;87556;-49
2022/03/20 06:18:47;;;;;;;;;;;-0.20;57.20;;;;;;5068511;27;86852;-46
2022/03/20 06:21:13;;;;;;;;;;;-0.20;57.40;;;;;;5068728;27;87188;-47
2022/03/20 06:23:39;;;;;;;;;;;-0.20;57.00;;;;;;5068540;27;87438;-49
2022/03/20 06:26:05;;;;;;;;;;;-0.20;57.30;;;;;;5068617;27;86801;-47
2022/03/20 06:28:31;;;;;;;;;;;-0.10;57.10;;;;;;5068658;27;87936;-49
2022/03/20 06:30:56;;;;;;;;;;;-0.10;56.80;;;;;;5068711;27;88169;-50
2022/03/20 06:33:25;;;;;;;;;;;-0.10;57.00;;;;;;5071491;27;86946;-47
2022/03/20 06:35:51;;;;;;;;;;;-0.20;56.90;;;;;;5068307;27;88509;-47
2022/03/20 06:38:18;;;;;;;;;;;-0.20;57.00;;;;;;5067979;27;87851;-47
2022/03/20 06:40:44;;;;;;;;;;;-0.20;57.30;;;;;;5068418;27;89075;-47
2022/03/20 06:43:09;;;;;;;;;;;-0.20;57.00;;;;;;5068044;27;88705;-48
2022/03/20 06:45:36;;;;;;;;;;;-0.10;56.80;;;;;;5067955;27;86988;-48
2022/03/20 06:48:02;;;;;;;;;;;-0.20;57.10;;;;;;5068130;27;87818;-48
2022/03/20 06:50:27;;;;;;;;;;;-0.20;56.70;;;;;;5067883;27;88372;-49
2022/03/20 06:52:53;;;;;;;;;;;-0.20;56.80;;;;;;5071151;27;87022;-49
2022/03/20 06:55:19;;;;;;;;;;;-0.20;56.50;;;;;;5068400;27;87088;-48
2022/03/20 06:57:45;;;;;;;;;;;-0.20;56.60;;;;;;5068268;27;87202;-47
2022/03/20 07:00:11;;;;;;;;;;;-0.20;56.60;;;;;;5068250;27;87324;-51
2022/03/20 07:02:36;;;;;;;;;;;-0.10;56.40;;;;;;5067196;27;88923;-48
2022/03/20 07:05:03;;;;;;;;;;;-0.10;56.30;;;;;;5067921;27;86843;-49
2022/03/20 07:07:28;;;;;;;;;;;0.00;56.30;;;;;;5068112;27;88166;-49
2022/03/20 07:09:54;;;;;;;;;;;-0.10;55.90;;;;;;5067487;27;88433;-47
2022/03/20 07:12:20;;;;;;;;;;;-0.10;56.20;;;;;;5067926;27;86911;-48
2022/03/20 07:14:46;;;;;;;;;;;-0.10;56.00;;;;;;5070565;27;86883;-49
2022/03/20 07:17:21;;;;;;;;;;;-0.10;56.10;;;;;;5067742;27;86867;-49
2022/03/20 07:19:47;;;;;;;;;;;-0.10;55.80;;;;;;5068565;27;86846;-47
2022/03/20 07:22:14;;;;;;;;;;;-0.20;55.40;;;;;;5067301;27;88895;-51
2022/03/20 07:24:41;;;;;;;;;;;-0.10;55.70;;;;;;5067744;27;86856;-47
2022/03/20 07:29:52;;;;;;;;;;;-0.20;55.40;;;;;;5067482;27;87141;-47
2022/03/20 07:32:18;;;;;;;;;;;-0.20;55.30;;;;;;5067576;27;86872;-48
2022/03/20 07:34:45;;;;;;;;;;;-0.20;55.30;;;;;;5067798;27;86903;-48
2022/03/20 07:37:17;;;;;;;;;;;-0.20;55.40;;;;;;5070033;27;88594;-48
2022/03/20 07:39:46;;;;;;;;;;;-0.20;55.20;;;;;;5067384;27;87154;-48
2022/03/20 07:42:13;;;;;;;;;;;-0.20;55.20;;;;;;5067027;27;88990;-47
2022/03/20 07:44:39;;;;;;;;;;;-0.10;55.10;;;;;;5067732;27;86081;-49
2022/03/20 07:47:08;;;;;;;;;;;-0.20;54.70;;;;;;5067392;27;87002;-51
2022/03/20 07:49:37;;;;;;;;;;;-0.20;55.00;;;;;;5066847;27;88203;-51
2022/03/20 07:52:05;;;;;;;;;;;-0.20;55.10;;;;;;5066861;27;87906;-48
2022/03/20 07:54:31;;;;;;;;;;;-0.20;55.00;;;;;;5067635;27;86960;-48
2022/03/20 07:56:56;;;;;;;;;;;-0.20;54.80;;;;;;5066869;27;88610;-50
2022/03/20 07:59:22;;;;;;;;;;;-0.20;54.90;;;;;;5070293;27;86839;-48
2022/03/20 08:01:48;;;;;;;;;;;-0.20;54.70;;;;;;5065920;27;86821;-48
2022/03/20 08:04:14;;;;;;;;;;;-0.10;54.70;;;;;;5066973;27;87021;-47
2022/03/20 08:06:39;;;;;;;;;;;-0.20;54.70;;;;;;5067436;27;86938;-47
2022/03/20 08:09:05;;;;;;;;;;;-0.20;54.90;;;;;;5067039;27;86720;-48
2022/03/20 08:11:31;;;;;;;;;;;-0.20;54.60;;;;;;5066335;27;86856;-51
2022/03/20 08:13:57;;;;;;;;;;;-0.30;54.90;;;;;;5066979;27;88033;-49
2022/03/20 08:16:25;;;;;;;;;;;-0.30;54.60;;;;;;5065822;27;88563;-49
2022/03/20 08:18:52;;;;;;;;;;;-0.30;55.00;;;;;;5066942;27;86880;-47
2022/03/20 08:21:18;;;;;;;;;;;-0.40;55.00;;;;;;5069498;27;86835;-47
2022/03/20 08:23:43;;;;;;;;;;;-0.40;54.80;;;;;;5066775;27;86912;-49
2022/03/20 08:26:11;;;;;;;;;;;-0.40;55.00;;;;;;5066981;27;86848;-47
2022/03/20 08:28:41;;;;;;;;;;;-0.40;55.20;;;;;;5066329;27;88601;-48
2022/03/20 08:31:08;;;;;;;;;;;-0.40;55.10;;;;;;5066622;27;86845;-47
2022/03/20 08:33:34;;;;;;;;;;;-0.40;55.00;;;;;;5067099;27;88183;-48
2022/03/20 08:36:00;;;;;;;;;;;-0.30;55.30;;;;;;5066548;27;86831;-51
2022/03/20 08:38:26;;;;;;;;;;;-0.30;55.40;;;;;;5066565;27;86882;-50
2022/03/20 08:40:51;;;;;;;;;;;-0.30;55.20;;;;;;5066439;27;88181;-47
2022/03/20 08:43:17;;;;;;;;;;;-0.40;54.90;;;;;;5069059;27;88365;-47
2022/03/20 08:45:44;;;;;;;;;;;-0.40;55.40;;;;;;5065948;27;88571;-47
2022/03/20 08:48:10;;;;;;;;;;;-0.30;55.40;;;;;;5066082;27;87563;-49
2022/03/20 08:50:36;;;;;;;;;;;-0.30;55.10;;;;;;5066684;27;86743;-48
2022/03/20 08:53:02;;;;;;;;;;;-0.30;55.30;;;;;;5066314;27;87182;-47
2022/03/20 08:55:27;;;;;;;;;;;-0.30;55.30;;;;;;5066191;27;87464;-48
2022/03/20 08:57:54;;;;;;;;;;;-0.40;55.00;;;;;;5067075;27;86261;-47
2022/03/20 09:00:21;;;;;;;;;;;-0.30;55.30;;;;;;5066096;27;87181;-47
2022/03/20 09:02:48;;;;;;;;;;;-0.30;55.30;;;;;;5068756;27;88567;-50
2022/03/20 09:05:14;;;;;;;;;;;-0.30;55.10;;;;;;5065588;27;87989;-48
2022/03/20 09:07:41;;;;;;;;;;;-0.40;54.70;;;;;;5065892;27;88740;-47
2022/03/20 09:10:07;;;;;;;;;;;-0.30;55.10;;;;;;5066132;27;86919;-47
2022/03/20 09:12:34;;;;;;;;;;;-0.30;54.80;;;;;;5066107;27;86949;-47
2022/03/20 09:15:01;;;;;;;;;;;-0.40;55.00;;;;;;5065103;27;87651;-47
2022/03/20 09:20:11;;;;;;;;;;;-0.30;54.70;;;;;;5063035;27;87127;-47
2022/03/20 09:22:37;;;;;;;;;;;-0.30;54.70;;;;;;5067131;27;87895;-47
2022/03/20 09:25:04;;;;;;;;;;;-0.30;55.00;;;;;;5072391;27;87008;-48
2022/03/20 09:27:29;;;;;;;;;;;-0.20;55.00;;;;;;5068975;27;88125;-47
2022/03/20 09:29:55;;;;;;;;;;;-0.20;54.80;;;;;;5069226;27;87835;-49
2022/03/20 09:32:21;;;;;;;;;;;-0.20;55.10;;;;;;5069538;27;87807;-47
2022/03/20 09:34:46;;;;;;;;;;;-0.30;54.60;;;;;;5069354;27;87495;-50
2022/03/20 09:37:12;;;;;;;;;;;-0.20;54.50;;;;;;5069467;27;86921;-48
2022/03/20 09:39:37;;;;;;;;;;;-0.20;54.60;;;;;;5069411;27;87009;-48
2022/03/20 09:42:06;;;;;;;;;;;-0.10;55.00;;;;;;5068822;27;87436;-48
2022/03/20 09:44:33;;;;;;;;;;;-0.10;54.60;;;;;;5069420;27;86832;-50
2022/03/20 09:46:59;;;;;;;;;;;-0.10;54.40;;;;;;5072053;27;87978;-48
2022/03/20 09:49:25;;;;;;;;;;;-0.10;54.20;;;;;;5069226;27;86846;-52
2022/03/20 09:51:52;;;;;;;;;;;-0.10;54.40;;;;;;5069465;27;87355;-49
2022/03/20 09:54:18;;;;;;;;;;;0.00;54.60;;;;;;5068164;27;87806;-49
2022/03/20 09:56:44;;;;;;;;;;;0.00;54.50;;;;;;5069067;27;86883;-51
2022/03/20 09:59:10;;;;;;;;;;;0.00;54.40;;;;;;5069144;27;88267;-48
2022/03/20 10:01:36;;;;;;;;;;;0.00;54.30;;;;;;5068569;27;88603;-48
2022/03/20 10:04:09;;;;;;;;;;;0.00;54.40;;;;;;5068874;27;86872;-47
2022/03/20 10:06:35;;;;;;;;;;;0.00;54.90;;;;;;5068968;27;87906;-49
2022/03/20 10:09:05;;;;;;;;;;;0.00;53.80;;;;;;5071812;27;87953;-53
2022/03/20 10:11:32;;;;;;;;;;;0.00;54.50;;;;;;5069314;27;88087;-48
2022/03/20 10:14:10;;;;;;;;;;;0.00;54.60;;;;;;5068514;27;87170;-48
2022/03/20 10:16:36;;;;;;;;;;;0.10;54.60;;;;;;5068782;27;87148;-50
2022/03/20 10:19:08;;;;;;;;;;;0.10;54.50;;;;;;5068289;27;88468;-49
2022/03/20 10:21:45;;;;;;;;;;;0.10;54.30;;;;;;5068802;27;88043;-49
2022/03/20 10:24:17;;;;;;;;;;;0.10;53.80;;;;;;5068610;27;87306;-48
2022/03/20 10:26:43;;;;;;;;;;;0.10;54.30;;;;;;5068787;27;88043;-48
2022/03/20 10:29:16;;;;;;;;;;;0.10;53.70;;;;;;5068628;27;87254;-48
2022/03/20 10:31:48;;;;;;;;;;;0.20;53.80;;;;;;5071552;27;86936;-48
2022/03/20 10:34:13;;;;;;;;;;;0.20;53.80;;;;;;5067991;27;87521;-47
2022/03/20 10:36:42;;;;;;;;;;;0.20;53.80;;;;;;5069004;27;86257;-49
2022/03/20 10:39:11;;;;;;;;;;;0.20;53.10;;;;;;5068523;27;86884;-50
2022/03/20 10:41:38;;;;;;;;;;;0.20;54.00;;;;;;5067927;27;88560;-50
2022/03/20 10:44:20;;;;;;;;;;;0.30;53.40;;;;;;5067704;27;87795;-48
2022/03/20 10:47:00;;;;;;;;;;;0.30;54.20;;;;;;5068117;27;88893;-50
2022/03/20 10:49:26;;;;;;;;;;;0.30;52.90;;;;;;5067902;27;88669;-48
2022/03/20 10:52:01;;;;;;;;;;;0.30;53.10;;;;;;5068369;27;86919;-50
2022/03/20 10:54:37;;;;;;;;;;;0.30;53.20;;;;;;5071388;27;86887;-47
2022/03/20 10:57:05;;;;;;;;;;;0.30;53.70;;;;;;5068623;27;87027;-48
2022/03/20 10:59:31;;;;;;;;;;;0.40;53.60;;;;;;5068716;27;87175;-48
2022/03/20 11:01:58;;;;;;;;;;;0.40;53.80;;;;;;5069108;27;86652;-47
2022/03/20 11:04:24;;;;;;;;;;;0.40;53.80;;;;;;5068513;27;86712;-51
2022/03/20 11:06:50;;;;;;;;;;;0.40;53.10;;;;;;5068470;27;87079;-47
2022/03/20 11:09:16;;;;;;;;;;;0.50;54.20;;;;;;5067462;27;89434;-49
2022/03/20 11:11:50;;;;;;;;;;;0.50;53.10;;;;;;5068485;27;86875;-49
2022/03/20 11:14:18;;;;;;;;;;;0.50;52.20;;;;;;5070970;27;87953;-48
2022/03/20 11:16:46;;;;;;;;;;;0.50;53.70;;;;;;5068458;27;86842;-48
2022/03/20 11:19:13;;;;;;;;;;;0.50;53.30;;;;;;5068440;27;87124;-47
2022/03/20 11:21:42;;;;;;;;;;;0.50;53.00;;;;;;5067800;27;88522;-48
2022/03/20 11:24:09;;;;;;;;;;;0.50;53.10;;;;;;5068226;27;86965;-47
2022/03/20 11:26:37;;;;;;;;;;;0.60;53.00;;;;;;5068730;27;87155;-47
2022/03/20 11:29:04;;;;;;;;;;;0.60;52.30;;;;;;5067800;27;87660;-47
2022/03/20 11:31:34;;;;;;;;;;;0.60;52.60;;;;;;5068363;27;86894;-49
2022/03/20 11:34:02;;;;;;;;;;;0.60;52.60;;;;;;5067528;27;87823;-48
2022/03/20 11:36:28;;;;;;;;;;;0.60;52.90;;;;;;5070597;27;88627;-47
2022/03/20 11:39:10;;;;;;;;;;;0.60;53.10;;;;;;5068081;27;86991;-47
2022/03/20 11:41:36;;;;;;;;;;;0.60;52.10;;;;;;5067478;27;87515;-49
2022/03/20 11:44:11;;;;;;;;;;;0.70;52.80;;;;;;5068205;27;86879;-47
2022/03/20 11:46:36;;;;;;;;;;;0.70;52.50;;;;;;5067020;27;86737;-48
2022/03/20 11:49:17;;;;;;;;;;;0.70;52.30;;;;;;5067458;27;88502;-49
2022/03/20 11:51:52;;;;;;;;;;;0.70;51.90;;;;;;5068403;27;86202;-48
2022/03/20 11:54:19;;;;;;;;;;;0.80;52.00;;;;;;5068160;27;86906;-47
2022/03/20 11:56:44;;;;;;;;;;;0.80;52.50;;;;;;5067388;27;88726;-50
2022/03/20 11:59:30;;;;;;;;;;;0.80;51.90;;;;;;5070143;27;87979;-48
2022/03/20 12:02:02;;;;;;;;;;;0.90;51.70;;;;;;5066471;27;88410;-48
2022/03/20 12:04:37;;;;;;;;;;;0.90;52.00;;;;;;5067670;27;86894;-47
2022/03/20 12:07:22;;;;;;;;;;;0.90;52.10;;;;;;5067588;27;88265;-48
2022/03/20 12:10:02;;;;;;;;;;;0.90;51.80;;;;;;5067066;27;88809;-48
2022/03/20 12:12:40;;;;;;;;;;;0.90;52.10;;;;;;5067304;27;86848;-48
2022/03/20 12:15:10;;;;;;;;;;;0.90;52.40;;;;;;5067479;27;87072;-49
2022/03/20 12:17:54;;;;;;;;;;;0.90;52.10;;;;;;5067659;27;86957;-47
2022/03/20 12:20:38;;;;;;;;;;;1.00;52.40;;;;;;5067209;27;86878;-48
2022/03/20 12:23:22;;;;;;;;;;;1.00;51.40;;;;;;5069149;27;86975;-51
2022/03/20 12:25:48;;;;;;;;;;;1.00;52.20;;;;;;5066852;27;87928;-48
2022/03/20 12:28:34;;;;;;;;;;;1.00;51.50;;;;;;5067581;27;87900;-48
2022/03/20 12:31:00;;;;;;;;;;;1.00;51.90;;;;;;5066208;27;87413;-48
2022/03/20 12:33:26;;;;;;;;;;;1.10;52.40;;;;;;5067125;27;86884;-47
2022/03/20 12:35:52;;;;;;;;;;;1.10;51.20;;;;;;5067119;27;88015;-48
2022/03/20 12:38:35;;;;;;;;;;;1.10;51.50;;;;;;5066659;27;87768;-48
2022/03/20 12:41:05;;;;;;;;;;;1.10;52.00;;;;;;5067028;27;86892;-49
2022/03/20 12:43:31;;;;;;;;;;;1.20;51.50;;;;;;5067590;27;86914;-48
2022/03/20 12:45:57;;;;;;;;;;;1.20;51.80;;;;;;5069228;27;86936;-47
2022/03/20 12:48:23;;;;;;;;;;;1.20;51.70;;;;;;5066944;27;87803;-48
2022/03/20 12:50:52;;;;;;;;;;;1.20;51.50;;;;;;5065887;27;89371;-48
2022/03/20 12:53:19;;;;;;;;;;;1.20;50.70;;;;;;5066671;27;86846;-51
2022/03/20 12:55:48;;;;;;;;;;;1.20;50.50;;;;;;5066740;27;87160;-48
2022/03/20 12:58:15;;;;;;;;;;;1.30;51.00;;;;;;5066364;27;88596;-48
2022/03/20 13:00:42;;;;;;;;;;;1.20;51.30;;;;;;5066555;27;86920;-50
2022/03/20 13:03:09;;;;;;;;;;;1.30;50.90;;;;;;5066677;27;87939;-52
2022/03/20 13:05:40;;;;;;;;;;;1.30;50.50;;;;;;5066547;27;86994;-50
2022/03/20 13:08:06;;;;;;;;;;;1.30;50.50;;;;;;5069923;27;86059;-50
2022/03/20 13:10:39;;;;;;;;;;;1.30;50.00;;;;;;5066269;27;88660;-52
2022/03/20 13:13:06;;;;;;;;;;;1.40;50.50;;;;;;5066515;27;86844;-52
2022/03/20 13:15:33;;;;;;;;;;;1.40;50.50;;;;;;5065981;27;87776;-48
2022/03/20 13:17:59;;;;;;;;;;;1.30;50.10;;;;;;5066037;27;88698;-50
2022/03/20 13:20:28;;;;;;;;;;;1.40;51.20;;;;;;5066449;27;87093;-48
2022/03/20 13:22:54;;;;;;;;;;;1.40;50.90;;;;;;5066564;27;88200;-48
2022/03/20 13:25:25;;;;;;;;;;;1.50;50.30;;;;;;5065951;27;88578;-48
2022/03/20 13:27:52;;;;;;;;;;;1.50;51.70;;;;;;5069250;27;86868;-48
2022/03/20 13:30:20;;;;;;;;;;;1.50;50.30;;;;;;5065933;27;87760;-48
2022/03/20 13:32:54;;;;;;;;;;;1.50;49.80;;;;;;5066718;27;86229;-48
2022/03/20 13:35:20;;;;;;;;;;;1.50;50.20;;;;;;5066345;27;87182;-49
2022/03/20 13:37:46;;;;;;;;;;;1.60;49.70;;;;;;5065874;27;87759;-48
2022/03/20 13:40:12;;;;;;;;;;;1.60;50.50;;;;;;5065483;27;87843;-49
2022/03/20 13:42:40;;;;;;;;;;;1.60;49.50;;;;;;5066249;27;88958;-49
2022/03/20 13:45:07;;;;;;;;;;;1.70;49.50;;;;;;5065562;27;88492;-48
2022/03/20 13:47:33;;;;;;;;;;;1.60;49.90;;;;;;5066082;27;87128;-48
2022/03/20 13:50:00;;;;;;;;;;;1.70;50.70;;;;;;5068720;27;87077;-49
2022/03/20 13:54:59;;;;;;;;;;;1.70;51.50;;;;;;5063247;27;87139;-48
2022/03/20 13:57:28;;;;;;;;;;;1.80;50.30;;;;;;5066199;27;87763;-49
2022/03/20 13:59:55;;;;;;;;;;;1.80;50.70;;;;;;5065900;27;86876;-48
2022/03/20 14:02:22;;;;;;;;;;;1.80;50.60;;;;;;5066142;27;87214;-48
2022/03/20 14:04:49;;;;;;;;;;;1.80;50.50;;;;;;5064942;27;89407;-48
2022/03/20 14:07:23;;;;;;;;;;;1.90;50.10;;;;;;5065975;27;86959;-52
2022/03/20 14:09:50;;;;;;;;;;;1.90;50.70;;;;;;5068725;27;88133;-48
2022/03/20 14:12:22;;;;;;;;;;;2.00;50.40;;;;;;5072282;27;87498;-50
2022/03/20 14:14:51;;;;;;;;;;;2.00;50.40;;;;;;5069390;27;88121;-48
2022/03/20 14:17:40;;;;;;;;;;;2.00;50.50;;;;;;5069262;27;86878;-48
2022/03/20 14:20:09;;;;;;;;;;;2.00;50.30;;;;;;5057966;27;87399;-49
2022/03/20 14:22:54;;;;;;;;;;;2.00;50.20;;;;;;5070007;27;86526;-49
2022/03/20 14:25:33;;;;;;;;;;;2.00;50.20;;;;;;5068723;27;88675;-49
2022/03/20 14:28:00;;;;;;;;;;;2.10;50.10;;;;;;5069107;27;86888;-50
2022/03/20 14:41:25;;;;;;;;;;;2.30;50.10;;;;;;5068622;27;86855;-48
2022/03/20 14:44:17;;;;;;;;;;;2.30;50.60;;;;;;5068995;27;87951;-50
2022/03/20 14:46:43;;;;;;;;;;;2.20;51.40;;;;;;5063955;27;88275;-49
2022/03/20 14:49:09;;;;;;;;;;;2.20;52.10;;;;;;5069561;27;86217;-51
2022/03/20 14:51:39;;;;;;;;;;;2.20;52.70;;;;;;5068718;27;86952;-50
2022/03/20 14:54:05;;;;;;;;;;;2.20;53.10;;;;;;5068186;27;88453;-48
2022/03/20 14:56:35;;;;;;;;;;;2.20;53.50;;;;;;5068214;27;87823;-46
2022/03/20 14:59:01;;;;;;;;;;;2.20;53.40;;;;;;5071062;27;88999;-48
2022/03/20 15:01:27;;;;;;;;;;;2.30;54.00;;;;;;5068426;27;86947;-53
2022/03/20 15:03:53;;;;;;;;;;;2.30;53.80;;;;;;5068645;27;87751;-47
2022/03/20 15:06:22;;;;;;;;;;;2.40;53.60;;;;;;5068225;27;88604;-47
2022/03/20 15:11:33;;;;;;;;;;;2.40;53.80;;;;;;5068766;27;86851;-45
2022/03/20 15:13:59;;;;;;;;;;;2.50;54.10;;;;;;5068648;27;86682;-46
2022/03/20 15:16:25;;;;;;;;;;;2.60;54.10;;;;;;5068299;27;86847;-46